createdAt,value
2018-08-22T00:00:11.068Z,15.20
2018-08-22T00:02:40.035Z,15.20
2018-08-22T00:05:09.004Z,15.10
2018-08-22T00:07:37.938Z,15.10
2018-08-22T00:10:06.961Z,15.10
2018-08-22T00:12:36.046Z,15.10
2018-08-22T00:15:05.302Z,15.10
2018-08-22T00:17:34.236Z,15.00
2018-08-22T00:20:03.243Z,15.00
2018-08-22T00:22:32.373Z,15.00
2018-08-22T00:25:01.404Z,15.00
2018-08-22T00:27:30.395Z,15.00
2018-08-22T00:29:59.357Z,15.10
2018-08-22T00:32:28.400Z,15.20
2018-08-22T00:34:57.371Z,15.20
2018-08-22T00:37:26.473Z,15.00
2018-08-22T00:39:55.423Z,15.00
2018-08-22T00:42:24.369Z,14.90
2018-08-22T00:44:53.318Z,14.90
2018-08-22T00:47:22.280Z,15.00
2018-08-22T00:49:51.222Z,14.90
2018-08-22T00:52:20.254Z,14.80
2018-08-22T00:54:49.320Z,14.90
2018-08-22T00:57:18.248Z,14.90
2018-08-22T00:59:47.378Z,14.90
2018-08-22T01:02:16.357Z,14.90
2018-08-22T01:04:52.084Z,14.90
2018-08-22T01:07:21.079Z,14.80
2018-08-22T01:09:50.094Z,14.80
2018-08-22T01:12:19.121Z,14.80
2018-08-22T01:14:48.209Z,14.80
2018-08-22T01:17:17.138Z,14.80
2018-08-22T01:19:46.106Z,14.80
2018-08-22T01:22:15.190Z,14.70
2018-08-22T01:24:44.192Z,14.60
2018-08-22T01:27:18.452Z,14.60
2018-08-22T01:29:47.423Z,14.60
2018-08-22T01:32:16.360Z,14.50
2018-08-22T01:34:45.322Z,14.50
2018-08-22T01:37:14.264Z,14.50
2018-08-22T01:39:43.332Z,14.50
2018-08-22T01:42:12.287Z,14.50
2018-08-22T01:44:41.272Z,14.50
2018-08-22T01:47:10.700Z,14.50
2018-08-22T01:49:39.754Z,14.40
2018-08-22T01:52:08.721Z,14.40
2018-08-22T01:54:37.634Z,14.30
2018-08-22T01:57:06.622Z,14.30
2018-08-22T01:59:35.613Z,14.30
2018-08-22T02:02:04.574Z,14.30
2018-08-22T02:04:33.588Z,14.30
2018-08-22T02:07:02.583Z,14.20
2018-08-22T02:09:31.568Z,14.10
2018-08-22T02:12:00.642Z,14.20
2018-08-22T02:14:29.585Z,14.20
2018-08-22T02:16:58.546Z,14.20
2018-08-22T02:19:27.490Z,14.20
2018-08-22T02:21:56.446Z,14.10
2018-08-22T02:24:25.426Z,14.10
2018-08-22T02:26:54.364Z,14.10
2018-08-22T02:29:23.304Z,14.00
2018-08-22T02:31:52.272Z,14.00
2018-08-22T02:34:21.212Z,14.00
2018-08-22T02:36:54.127Z,14.00
2018-08-22T02:39:23.107Z,13.90
2018-08-22T02:41:52.192Z,13.90
2018-08-22T02:44:21.309Z,13.80
2018-08-22T02:46:50.308Z,13.80
2018-08-22T02:49:19.346Z,13.70
2018-08-22T02:51:48.299Z,13.70
2018-08-22T02:54:17.333Z,13.60
2018-08-22T02:56:46.367Z,13.60
2018-08-22T02:59:15.327Z,13.60
2018-08-22T03:01:44.287Z,13.60
2018-08-22T03:04:13.346Z,13.60
2018-08-22T03:06:42.311Z,13.60
2018-08-22T03:09:11.302Z,13.50
2018-08-22T03:11:40.260Z,13.50
2018-08-22T03:14:09.190Z,13.50
2018-08-22T03:16:38.161Z,13.40
2018-08-22T03:19:07.375Z,13.40
2018-08-22T03:21:36.463Z,13.30
2018-08-22T03:24:05.470Z,13.20
2018-08-22T03:26:34.493Z,13.20
2018-08-22T03:29:03.477Z,13.20
2018-08-22T03:31:32.659Z,13.10
2018-08-22T03:34:01.873Z,13.10
2018-08-22T03:36:30.805Z,13.00
2018-08-22T03:38:59.791Z,13.00
2018-08-22T03:41:28.827Z,13.00
2018-08-22T03:43:58.981Z,13.00
2018-08-22T03:46:27.950Z,12.90
2018-08-22T03:48:56.914Z,12.90
2018-08-22T03:51:25.931Z,12.90
2018-08-22T03:53:54.935Z,12.90
2018-08-22T03:56:23.883Z,12.90
2018-08-22T03:58:52.849Z,12.90
2018-08-22T04:01:21.914Z,12.80
2018-08-22T04:03:50.864Z,12.80
2018-08-22T04:06:19.965Z,12.70
2018-08-22T04:08:48.923Z,12.70
2018-08-22T04:11:17.872Z,12.70
2018-08-22T04:13:46.928Z,12.60
2018-08-22T04:16:15.937Z,12.70
2018-08-22T04:18:44.918Z,12.70
2018-08-22T04:21:14.045Z,12.70
2018-08-22T04:23:43.131Z,12.70
2018-08-22T04:26:12.087Z,12.80
2018-08-22T04:28:41.457Z,12.80
2018-08-22T04:31:10.511Z,12.70
2018-08-22T04:33:39.644Z,12.80
2018-08-22T04:36:08.666Z,12.80
2018-08-22T04:38:37.613Z,12.90
2018-08-22T04:41:06.721Z,12.90
2018-08-22T04:43:36.371Z,12.90
2018-08-22T04:46:05.343Z,13.00
2018-08-22T04:48:34.431Z,13.10
2018-08-22T04:51:03.629Z,13.10
2018-08-22T04:53:33.383Z,13.30
2018-08-22T04:56:02.442Z,13.50
2018-08-22T04:58:31.644Z,13.60
2018-08-22T05:01:00.596Z,13.70
2018-08-22T05:03:30.636Z,13.80
2018-08-22T05:05:59.822Z,13.80
2018-08-22T05:08:29.164Z,13.90
2018-08-22T05:10:58.098Z,14.00
2018-08-22T05:13:27.145Z,14.10
2018-08-22T05:15:56.281Z,14.30
2018-08-22T05:18:25.311Z,14.60
2018-08-22T05:20:55.212Z,14.70
2018-08-22T05:23:24.228Z,14.80
2018-08-22T05:25:53.387Z,15.10
2018-08-22T05:28:22.421Z,15.10
2018-08-22T05:30:51.788Z,15.30
2018-08-22T05:33:20.815Z,15.50
2018-08-22T05:35:49.811Z,15.70
2018-08-22T05:38:18.752Z,15.90
2018-08-22T05:40:47.844Z,16.20
2018-08-22T05:43:17.180Z,16.50
2018-08-22T05:45:46.204Z,16.80
2018-08-22T05:48:15.135Z,17.10
2018-08-22T05:50:44.134Z,17.70
2018-08-22T05:53:13.720Z,18.00
2018-08-22T05:55:42.685Z,17.70
2018-08-22T05:58:11.611Z,18.10
2018-08-22T06:00:40.608Z,18.60
2018-08-22T06:03:09.608Z,18.80
2018-08-22T06:05:38.624Z,18.90
2018-08-22T06:08:07.676Z,19.30
2018-08-22T06:10:36.645Z,19.50
2018-08-22T06:13:05.809Z,19.10
2018-08-22T06:15:34.779Z,19.10
2018-08-22T06:18:03.782Z,19.20
2018-08-22T06:20:32.809Z,19.90
2018-08-22T06:23:01.896Z,20.40
2018-08-22T06:25:31.268Z,20.90
2018-08-22T06:28:00.223Z,20.70
2018-08-22T06:30:29.144Z,21.20
2018-08-22T06:32:58.125Z,21.30
2018-08-22T06:35:27.056Z,21.30
2018-08-22T06:37:56.026Z,21.80
2018-08-22T06:40:25.041Z,22.30
2018-08-22T06:42:54.224Z,22.60
2018-08-22T06:45:23.163Z,23.20
2018-08-22T06:47:52.227Z,23.80
2018-08-22T06:50:21.444Z,24.20
2018-08-22T06:52:50.445Z,23.60
2018-08-22T06:55:19.439Z,23.20
2018-08-22T06:57:48.502Z,24.20
2018-08-22T07:00:17.499Z,24.90
2018-08-22T07:02:46.538Z,24.80
2018-08-22T07:05:15.516Z,24.80
2018-08-22T07:07:44.513Z,25.00
2018-08-22T07:10:13.587Z,25.30
2018-08-22T07:12:42.710Z,26.20
2018-08-22T07:15:11.913Z,26.40
2018-08-22T07:17:40.984Z,26.60
2018-08-22T07:20:10.104Z,26.60
2018-08-22T07:22:39.403Z,26.90
2018-08-22T07:25:08.443Z,27.00
2018-08-22T07:27:37.421Z,27.70
2018-08-22T07:30:06.606Z,27.00
2018-08-22T07:32:35.618Z,27.00
2018-08-22T07:35:04.845Z,26.90
2018-08-22T07:37:33.915Z,27.30
2018-08-22T07:40:02.890Z,28.40
2018-08-22T07:42:31.914Z,28.70
2018-08-22T07:45:02.006Z,29.30
2018-08-22T07:47:33.175Z,30.20
2018-08-22T07:50:02.110Z,30.00
2018-08-22T07:52:31.170Z,30.20
2018-08-22T07:55:00.192Z,30.10
2018-08-22T07:57:29.793Z,30.00
2018-08-22T07:59:58.878Z,30.10
2018-08-22T08:02:28.545Z,30.30
2018-08-22T08:04:57.730Z,29.90
2018-08-22T08:07:28.820Z,29.90
2018-08-22T08:09:58.535Z,30.20
2018-08-22T08:12:31.789Z,30.10
2018-08-22T08:15:05.102Z,30.70
2018-08-22T08:17:34.062Z,30.90
2018-08-22T08:20:03.059Z,30.90
2018-08-22T08:22:32.138Z,31.10
2018-08-22T08:25:01.870Z,31.20
2018-08-22T08:27:30.853Z,31.30
2018-08-22T08:29:59.906Z,31.70
2018-08-22T08:32:28.880Z,31.40
2018-08-22T08:34:57.832Z,31.70
2018-08-22T08:37:26.883Z,31.60
2018-08-22T08:39:55.840Z,31.60
2018-08-22T08:42:24.863Z,32.40
2018-08-22T08:44:53.892Z,32.60
2018-08-22T08:47:23.702Z,33.10
2018-08-22T08:49:52.715Z,32.30
2018-08-22T08:52:21.762Z,32.60
2018-08-22T08:54:52.291Z,32.70
2018-08-22T08:57:21.547Z,33.00
2018-08-22T08:59:50.412Z,33.70
2018-08-22T09:02:19.434Z,34.10
2018-08-22T09:04:48.427Z,34.60
2018-08-22T09:07:18.103Z,34.00
2018-08-22T09:09:47.077Z,33.90
2018-08-22T09:12:16.127Z,35.10
2018-08-22T09:14:45.078Z,35.60
2018-08-22T09:17:15.009Z,33.80
2018-08-22T09:19:43.949Z,34.00
2018-08-22T09:22:12.943Z,34.50
2018-08-22T09:24:42.022Z,34.70
2018-08-22T09:27:11.612Z,35.10
2018-08-22T09:29:41.189Z,35.40
2018-08-22T09:32:10.466Z,34.90
2018-08-22T09:34:39.544Z,35.40
2018-08-22T09:37:08.485Z,35.80
2018-08-22T09:39:37.663Z,35.80
2018-08-22T09:42:06.624Z,35.40
2018-08-22T09:44:35.775Z,36.30
2018-08-22T09:47:06.258Z,36.30
2018-08-22T09:49:35.231Z,36.20
2018-08-22T09:52:04.205Z,36.40
2018-08-22T09:54:34.646Z,36.00
2018-08-22T09:57:03.652Z,36.10
2018-08-22T09:59:32.602Z,35.40
2018-08-22T10:02:01.574Z,35.60
2018-08-22T10:04:30.653Z,35.60
2018-08-22T10:07:00.556Z,36.00
2018-08-22T10:09:29.508Z,35.90
2018-08-22T10:11:59.316Z,36.20
2018-08-22T10:14:28.273Z,36.20
2018-08-22T10:16:57.388Z,33.70
2018-08-22T10:19:26.346Z,34.40
2018-08-22T10:21:55.306Z,36.10
2018-08-22T10:24:24.255Z,37.40
2018-08-22T10:26:53.328Z,37.00
2018-08-22T10:29:22.313Z,36.20
2018-08-22T10:31:51.299Z,35.40
2018-08-22T10:34:20.326Z,33.80
2018-08-22T10:36:49.281Z,34.30
2018-08-22T10:39:18.327Z,35.60
2018-08-22T10:41:47.289Z,37.20
2018-08-22T10:44:16.282Z,37.80
2018-08-22T10:46:45.634Z,37.20
2018-08-22T10:49:15.650Z,36.70
2018-08-22T10:51:45.705Z,36.30
2018-08-22T10:54:14.787Z,36.40
2018-08-22T10:56:43.883Z,37.50
2018-08-22T10:59:12.926Z,36.00
2018-08-22T11:01:41.896Z,37.50
2018-08-22T11:04:10.860Z,36.60
2018-08-22T11:06:39.911Z,37.00
2018-08-22T11:09:09.996Z,36.90
2018-08-22T11:11:39.039Z,37.10
2018-08-22T11:14:08.334Z,36.40
2018-08-22T11:16:37.318Z,37.00
2018-08-22T11:19:06.372Z,38.10
2018-08-22T11:21:46.586Z,37.40
2018-08-22T11:24:26.803Z,36.20
2018-08-22T11:27:07.131Z,36.30
2018-08-22T11:29:47.479Z,37.40
2018-08-22T11:32:28.000Z,38.00
2018-08-22T11:34:55.863Z,38.40
2018-08-22T11:37:24.943Z,38.00
2018-08-22T11:39:53.974Z,38.70
2018-08-22T11:42:22.947Z,38.30
2018-08-22T11:44:52.051Z,38.50
2018-08-22T11:47:21.138Z,38.70
2018-08-22T11:49:50.517Z,38.30
2018-08-22T11:52:19.504Z,38.20
2018-08-22T11:54:48.476Z,37.70
2018-08-22T11:57:17.436Z,37.40
2018-08-22T11:59:46.357Z,36.60
2018-08-22T12:02:15.410Z,35.50
2018-08-22T12:04:44.371Z,34.50
2018-08-22T12:07:13.403Z,35.10
2018-08-22T12:09:42.385Z,35.30
2018-08-22T12:12:11.386Z,35.10
2018-08-22T12:14:40.316Z,35.00
2018-08-22T12:17:09.276Z,34.40
2018-08-22T12:19:38.250Z,33.90
2018-08-22T12:22:07.422Z,33.90
2018-08-22T12:24:36.621Z,32.80
2018-08-22T12:27:05.574Z,33.40
2018-08-22T12:29:34.522Z,33.20
2018-08-22T12:32:03.445Z,33.20
2018-08-22T12:34:32.460Z,33.00
2018-08-22T12:37:01.394Z,32.80
2018-08-22T12:39:30.313Z,33.60
2018-08-22T12:41:59.284Z,34.00
2018-08-22T12:44:29.095Z,34.10
2018-08-22T12:46:58.210Z,33.20
2018-08-22T12:49:27.291Z,33.20
2018-08-22T12:51:56.287Z,33.70
2018-08-22T12:54:25.267Z,33.70
2018-08-22T12:56:54.242Z,33.80
2018-08-22T12:59:23.271Z,33.40
2018-08-22T13:01:52.190Z,33.50
2018-08-22T13:04:21.295Z,33.70
2018-08-22T13:06:50.393Z,33.60
2018-08-22T13:09:19.380Z,34.30
2018-08-22T13:11:48.491Z,33.40
2018-08-22T13:14:17.546Z,32.90
2018-08-22T13:16:47.481Z,32.20
2018-08-22T13:19:16.489Z,32.40
2018-08-22T13:21:45.365Z,33.40
2018-08-22T13:24:14.981Z,34.70
2018-08-22T13:26:43.892Z,35.30
2018-08-22T13:29:12.820Z,34.90
2018-08-22T13:31:42.702Z,35.30
2018-08-22T13:34:11.771Z,35.10
2018-08-22T13:36:41.072Z,35.20
2018-08-22T13:39:10.970Z,34.70
2018-08-22T13:41:40.074Z,34.20
2018-08-22T13:44:09.047Z,33.80
2018-08-22T13:46:38.163Z,33.90
2018-08-22T13:49:07.200Z,34.20
2018-08-22T13:51:36.189Z,34.40
2018-08-22T13:54:05.266Z,34.30
2018-08-22T13:56:34.382Z,34.60
2018-08-22T13:59:03.313Z,34.50
2018-08-22T14:01:32.569Z,34.30
2018-08-22T14:04:01.914Z,34.70
2018-08-22T14:06:31.514Z,34.50
2018-08-22T14:09:00.606Z,33.30
2018-08-22T14:11:29.722Z,33.80
2018-08-22T14:13:58.709Z,33.60
2018-08-22T14:16:27.647Z,32.70
2018-08-22T14:18:56.626Z,34.10
2018-08-22T14:21:25.660Z,34.00
2018-08-22T14:23:54.623Z,34.10
2018-08-22T14:26:24.187Z,34.70
2018-08-22T14:28:53.250Z,34.60
2018-08-22T14:31:22.391Z,34.70
2018-08-22T14:33:51.696Z,34.70
2018-08-22T14:36:20.759Z,35.00
2018-08-22T14:38:50.755Z,34.70
2018-08-22T14:41:19.729Z,33.80
2018-08-22T14:43:48.797Z,33.50
2018-08-22T14:46:17.903Z,33.70
2018-08-22T14:48:46.880Z,33.50
2018-08-22T14:51:16.057Z,33.90
2018-08-22T14:53:45.028Z,33.60
2018-08-22T14:56:14.101Z,33.00
2018-08-22T14:58:43.127Z,32.80
2018-08-22T15:01:13.110Z,33.80
2018-08-22T15:03:42.199Z,33.90
2018-08-22T15:06:11.213Z,34.00
2018-08-22T15:08:42.644Z,34.20
2018-08-22T15:11:11.627Z,34.10
2018-08-22T15:13:40.616Z,33.40
2018-08-22T15:16:09.578Z,33.80
2018-08-22T15:18:38.561Z,34.30
2018-08-22T15:21:07.883Z,35.00
2018-08-22T15:23:36.947Z,35.00
2018-08-22T15:26:06.068Z,34.80
2018-08-22T15:28:35.106Z,34.60
2018-08-22T15:31:04.119Z,34.50
2018-08-22T15:33:34.015Z,34.70
2018-08-22T15:36:03.474Z,34.60
2018-08-22T15:38:32.659Z,34.10
2018-08-22T15:41:01.856Z,33.80
2018-08-22T15:43:31.909Z,33.30
2018-08-22T15:46:01.847Z,32.90
2018-08-22T15:48:31.089Z,32.80
2018-08-22T15:51:00.804Z,31.90
2018-08-22T15:53:30.785Z,31.40
2018-08-22T15:55:59.861Z,30.80
2018-08-22T15:58:30.494Z,30.50
2018-08-22T16:01:00.244Z,30.90
2018-08-22T16:03:29.548Z,31.00
2018-08-22T16:05:59.031Z,30.80
2018-08-22T16:08:29.284Z,30.40
2018-08-22T16:10:59.233Z,30.10
2018-08-22T16:13:30.039Z,29.80
2018-08-22T16:16:02.363Z,29.50
2018-08-22T16:18:33.596Z,29.40
2018-08-22T16:21:04.735Z,29.30
2018-08-22T16:23:35.241Z,29.20
2018-08-22T16:26:05.429Z,29.10
2018-08-22T16:28:48.741Z,29.00
2018-08-22T16:31:18.812Z,28.80
2018-08-22T16:33:47.985Z,28.70
2018-08-22T16:36:21.916Z,28.70
2018-08-22T16:38:50.935Z,28.60
2018-08-22T16:41:20.049Z,28.60
2018-08-22T16:43:50.115Z,28.50
2018-08-22T16:46:19.514Z,28.50
2018-08-22T16:48:51.155Z,28.40
2018-08-22T16:51:21.910Z,28.40
2018-08-22T16:53:59.108Z,28.40
2018-08-22T16:56:28.984Z,28.40
2018-08-22T16:59:18.346Z,28.30
2018-08-22T17:01:49.312Z,28.20
2018-08-22T17:04:18.380Z,28.20
2018-08-22T17:06:47.929Z,28.10
2018-08-22T17:09:16.926Z,28.10
2018-08-22T17:11:46.009Z,28.00
2018-08-22T17:14:15.077Z,28.00
2018-08-22T17:16:44.184Z,28.00
2018-08-22T17:19:14.138Z,27.90
2018-08-22T17:21:43.211Z,27.90
2018-08-22T17:24:13.838Z,27.90
2018-08-22T17:26:44.067Z,27.80
2018-08-22T17:29:13.204Z,27.80
2018-08-22T17:31:42.920Z,27.70
2018-08-22T17:34:13.133Z,27.70
2018-08-22T17:36:42.501Z,27.60
2018-08-22T17:39:12.460Z,27.50
2018-08-22T17:41:42.047Z,27.40
2018-08-22T17:44:13.327Z,27.30
2018-08-22T17:46:44.681Z,27.20
2018-08-22T17:49:15.089Z,27.10
2018-08-22T17:51:57.605Z,27.10
2018-08-22T17:54:27.171Z,27.00
2018-08-22T17:57:09.677Z,26.90
2018-08-22T17:59:39.323Z,26.80
2018-08-22T18:02:08.836Z,26.70
2018-08-22T18:04:49.416Z,26.70
2018-08-22T18:07:18.682Z,26.60
2018-08-22T18:09:49.057Z,26.40
2018-08-22T18:12:19.535Z,26.30
2018-08-22T18:14:48.584Z,26.30
2018-08-22T18:17:20.056Z,26.20
2018-08-22T18:19:49.782Z,26.10
2018-08-22T18:22:18.762Z,26.00
2018-08-22T18:24:53.528Z,25.90
2018-08-22T18:27:22.802Z,25.80
2018-08-22T18:29:51.872Z,25.70
2018-08-22T18:32:21.121Z,25.70
2018-08-22T18:35:11.446Z,25.60
2018-08-22T18:37:41.102Z,25.50
2018-08-22T18:40:18.160Z,25.30
2018-08-22T18:42:52.480Z,25.30
2018-08-22T18:45:22.052Z,25.20
2018-08-22T18:47:51.325Z,25.10
2018-08-22T18:50:20.916Z,25.00
2018-08-22T18:52:53.852Z,24.90
2018-08-22T18:55:25.297Z,24.80
2018-08-22T18:57:54.831Z,24.70
2018-08-22T19:00:23.999Z,24.60
2018-08-22T19:02:55.454Z,24.50
2018-08-22T19:05:31.074Z,24.50
2018-08-22T19:08:04.547Z,24.30
2018-08-22T19:10:35.007Z,24.30
2018-08-22T19:13:09.409Z,24.20
2018-08-22T19:15:38.811Z,24.10
2018-08-22T19:18:10.088Z,24.00
2018-08-22T19:20:39.299Z,23.90
2018-08-22T19:23:08.268Z,23.90
2018-08-22T19:25:37.342Z,23.80
2018-08-22T19:28:06.981Z,23.70
2018-08-22T19:30:37.961Z,23.60
2018-08-22T19:33:10.265Z,23.60
2018-08-22T19:35:39.336Z,23.50
2018-08-22T19:38:08.597Z,23.40
2018-08-22T19:40:37.962Z,23.40
2018-08-22T19:43:08.071Z,23.30
2018-08-22T19:45:37.819Z,23.30
2018-08-22T19:48:07.434Z,23.10
2018-08-22T19:50:36.763Z,23.10
2018-08-22T19:53:06.402Z,23.00
2018-08-22T19:55:36.439Z,22.90
2018-08-22T19:58:06.129Z,22.90
2018-08-22T20:00:35.342Z,22.90
2018-08-22T20:03:04.350Z,22.80
2018-08-22T20:06:08.462Z,22.70
2018-08-22T20:08:38.741Z,22.70
2018-08-22T20:11:08.199Z,22.60
2018-08-22T20:13:49.678Z,22.60
2018-08-22T20:16:21.516Z,22.50
2018-08-22T20:18:53.013Z,22.50
2018-08-22T20:21:40.003Z,22.50
2018-08-22T20:26:33.046Z,22.50
2018-08-22T20:29:03.422Z,22.40
2018-08-22T20:31:33.881Z,22.40
2018-08-22T20:34:19.469Z,22.50
2018-08-22T20:39:45.557Z,22.60
2018-08-22T20:42:14.413Z,22.60
2018-08-22T20:44:43.529Z,22.70
2018-08-22T20:47:13.034Z,22.70
2018-08-22T20:49:42.039Z,22.70
2018-08-22T20:52:11.059Z,22.70
2018-08-22T20:54:40.122Z,22.70
2018-08-22T20:57:11.551Z,22.70
2018-08-22T20:59:40.778Z,22.70
2018-08-22T21:02:09.830Z,22.60
2018-08-22T21:04:38.857Z,22.60
2018-08-22T21:07:07.903Z,22.60
2018-08-22T21:09:36.888Z,22.60
2018-08-22T21:12:05.944Z,22.60
2018-08-22T21:14:34.964Z,22.60
2018-08-22T21:17:03.911Z,22.60
2018-08-22T21:19:32.876Z,22.50
2018-08-22T21:22:02.016Z,22.50
2018-08-22T21:24:31.060Z,22.50
2018-08-22T21:27:00.517Z,22.40
2018-08-22T21:29:29.448Z,22.30
2018-08-22T21:31:58.481Z,22.30
2018-08-22T21:34:27.506Z,22.30
2018-08-22T21:36:56.597Z,22.20
2018-08-22T21:39:26.936Z,22.10
2018-08-22T21:41:56.114Z,22.00
2018-08-22T21:44:25.441Z,21.90
2018-08-22T21:47:00.493Z,21.70
2018-08-22T21:49:29.872Z,21.60
2018-08-22T21:52:00.421Z,21.50
2018-08-22T21:54:29.720Z,21.40
2018-08-22T21:56:59.291Z,21.40
2018-08-22T21:59:29.257Z,21.30
2018-08-22T22:02:03.556Z,21.20
2018-08-22T22:04:32.528Z,21.10
2018-08-22T22:07:01.781Z,21.00
2018-08-22T22:09:30.865Z,21.00
2018-08-22T22:12:01.160Z,20.90
2018-08-22T22:14:32.158Z,20.80
2018-08-22T22:17:02.340Z,20.80
2018-08-22T22:19:34.455Z,20.70
2018-08-22T22:22:04.128Z,20.60
2018-08-22T22:24:34.207Z,20.60
2018-08-22T22:27:03.761Z,20.50
2018-08-22T22:29:33.702Z,20.50
2018-08-22T22:32:02.696Z,20.50
2018-08-22T22:34:31.661Z,20.50
2018-08-22T22:37:01.248Z,20.40
2018-08-22T22:39:37.850Z,20.40
2018-08-22T22:42:13.585Z,20.40
2018-08-22T22:44:47.902Z,20.30
2018-08-22T22:47:22.323Z,20.20
2018-08-22T22:49:51.847Z,20.20
2018-08-22T22:52:28.765Z,20.20
2018-08-22T22:54:59.096Z,20.10
2018-08-22T22:57:29.581Z,20.10
2018-08-22T22:59:59.463Z,20.10
2018-08-22T23:02:28.817Z,20.10
2018-08-22T23:04:58.603Z,20.00
2018-08-22T23:07:32.101Z,20.00
2018-08-22T23:10:02.366Z,20.00
2018-08-22T23:12:47.741Z,20.00
2018-08-22T23:15:19.710Z,19.90
2018-08-22T23:17:49.508Z,19.80
2018-08-22T23:20:38.261Z,19.80
2018-08-22T23:23:41.203Z,19.70
2018-08-22T23:26:15.934Z,19.70
2018-08-22T23:28:45.320Z,19.70
2018-08-22T23:31:15.822Z,19.70
2018-08-22T23:33:44.812Z,19.80
2018-08-22T23:36:13.785Z,19.90
2018-08-22T23:38:42.783Z,19.80
2018-08-22T23:41:11.840Z,19.70
2018-08-22T23:43:46.153Z,19.70
2018-08-22T23:46:15.144Z,19.80
2018-08-22T23:48:44.166Z,19.70
2018-08-22T23:51:14.185Z,19.70
2018-08-22T23:53:48.512Z,19.60
2018-08-22T23:56:19.734Z,19.60
2018-08-22T23:58:49.456Z,19.70
